createdAt,value
2022-08-17T00:00:51.673Z,101110.89
2022-08-17T00:03:20.861Z,101109.93999999999
2022-08-17T00:05:51.027Z,101102.09
2022-08-17T00:08:20.623Z,101103.52
2022-08-17T00:10:49.673Z,101101.48000000001
2022-08-17T00:15:46.498Z,101099.01
2022-08-17T00:19:00.394Z,101099.94
2022-08-17T00:20:46.503Z,101104.39
2022-08-17T00:25:46.867Z,101105.59
2022-08-17T00:28:16.802Z,101109.72
2022-08-17T00:30:53.175Z,101119.68000000001
2022-08-17T00:33:19.120Z,101119.14
2022-08-17T00:35:47.671Z,101111.87999999999
2022-08-17T00:38:17.372Z,101109.37
2022-08-17T00:43:19.628Z,101103.56
2022-08-17T00:45:46.892Z,101107.84
2022-08-17T00:48:29.570Z,101116.06
2022-08-17T00:50:53.221Z,101115.05
2022-08-17T00:53:16.635Z,101109.12
2022-08-17T00:55:46.495Z,101111.53
2022-08-17T00:58:16.895Z,101107.17
2022-08-17T01:00:47.278Z,101101.54
2022-08-17T01:05:52.095Z,101109.55
2022-08-17T01:08:21.347Z,101109.89
2022-08-17T01:10:59.652Z,101105.16
2022-08-17T01:13:16.564Z,101106.45
2022-08-17T01:15:50.394Z,101106.8
2022-08-17T01:18:16.764Z,101114.67
2022-08-17T01:20:49.899Z,101114.53
2022-08-17T01:23:20.923Z,101115.44
2022-08-17T01:25:48.818Z,101114.45
2022-08-17T01:28:33.473Z,101108.58
2022-08-17T01:30:58.199Z,101105.11
2022-08-17T01:33:16.551Z,101099.5
2022-08-17T01:35:46.597Z,101093.62999999999
2022-08-17T01:40:57.366Z,101093.94
2022-08-17T01:43:21.783Z,101098.61
2022-08-17T01:45:48.875Z,101090.52
2022-08-17T01:48:18.697Z,101091.17
2022-08-17T01:50:48.769Z,101095.68000000001
2022-08-17T01:53:20.243Z,101094.58
2022-08-17T01:55:50.486Z,101099.14
2022-08-17T01:58:17.710Z,101104.26
2022-08-17T02:01:00.566Z,101109.34
2022-08-17T02:03:17.420Z,101113.75
2022-08-17T02:05:47.461Z,101112.03
2022-08-17T02:08:19.928Z,101110.22
2022-08-17T02:10:48.944Z,101109.05
2022-08-17T02:13:18.722Z,101106.67
2022-08-17T02:15:46.696Z,101101.75
2022-08-17T02:18:16.612Z,101099.2
2022-08-17T02:20:46.448Z,101097.03
2022-08-17T02:23:17.018Z,101098.71
2022-08-17T02:25:47.537Z,101100.27
2022-08-17T02:30:59.056Z,101106.56
2022-08-17T02:33:16.951Z,101103.38
2022-08-17T02:35:47.547Z,101102.45
2022-08-17T02:38:16.767Z,101101.67
2022-08-17T02:40:46.550Z,101100.62000000001
2022-08-17T02:43:16.645Z,101100.67
2022-08-17T02:45:46.405Z,101104.97
2022-08-17T02:48:16.481Z,101100.76000000001
2022-08-17T02:50:46.884Z,101102.66
2022-08-17T02:53:16.539Z,101104.25
2022-08-17T02:55:46.804Z,101103.05
2022-08-17T03:00:47.549Z,101093.94
2022-08-17T03:03:17.873Z,101090.29000000001
2022-08-17T03:05:50.435Z,101083.62
2022-08-17T03:10:46.476Z,101078.88
2022-08-17T03:13:16.798Z,101078.49
2022-08-17T03:15:47.419Z,101080.19
2022-08-17T03:25:46.574Z,101083.06999999999
2022-08-17T03:28:16.604Z,101086.72
2022-08-17T03:30:46.568Z,101086.19
2022-08-17T03:33:16.715Z,101087.07
2022-08-17T03:35:47.319Z,101091.13
2022-08-17T03:38:17.623Z,101090.72
2022-08-17T03:40:56.879Z,101100.81
2022-08-17T03:43:18.585Z,101102.75
2022-08-17T03:45:56.552Z,101109.17
2022-08-17T03:48:26.345Z,101107.79
2022-08-17T03:50:56.411Z,101115.99
2022-08-17T03:53:26.823Z,101112.84000000001
2022-08-17T03:55:56.280Z,101117.7
2022-08-17T03:58:17.031Z,101118.53
2022-08-17T04:00:46.862Z,101117.7
2022-08-17T04:03:17.052Z,101117.94
2022-08-17T04:05:46.511Z,101115.45
2022-08-17T04:08:16.905Z,101113.89
2022-08-17T04:10:48.506Z,101118.44
2022-08-17T04:13:16.476Z,101120.76
2022-08-17T04:15:48.146Z,101124.01999999999
2022-08-17T04:18:17.097Z,101118.38
2022-08-17T04:20:46.439Z,101119.76
2022-08-17T04:23:18.297Z,101121.94
2022-08-17T04:25:49.352Z,101123.33
2022-08-17T04:28:18.339Z,101123.6
2022-08-17T04:30:47.020Z,101121.04000000001
2022-08-17T04:33:19.886Z,101121.89
2022-08-17T04:35:49.064Z,101126.65
2022-08-17T04:38:18.795Z,101130.04
2022-08-17T04:40:56.908Z,101134.16
2022-08-17T04:43:19.271Z,101137.51999999999
2022-08-17T04:45:55.580Z,101140.59
2022-08-17T04:48:17.037Z,101134.63
2022-08-17T04:50:49.459Z,101136.22
2022-08-17T04:53:17.670Z,101130.14
2022-08-17T04:55:47.255Z,101128.7
2022-08-17T04:58:16.668Z,101131.69
2022-08-17T05:00:47.058Z,101133.06
2022-08-17T05:03:16.563Z,101132.56999999999
2022-08-17T05:05:48.621Z,101132.48
2022-08-17T05:08:19.106Z,101132.67
2022-08-17T05:10:48.001Z,101129.63
2022-08-17T05:13:19.463Z,101128.83
2022-08-17T05:15:48.646Z,101133.83
2022-08-17T05:18:16.692Z,101146.87
2022-08-17T05:20:46.709Z,101151.5
2022-08-17T05:23:17.783Z,101164.49
2022-08-17T05:25:48.704Z,101187.37
2022-08-17T05:28:19.037Z,101195.17
2022-08-17T05:30:49.360Z,101178.66
2022-08-17T05:33:19.371Z,101185.67
2022-08-17T05:35:49.971Z,101199.73
2022-08-17T05:40:46.616Z,101207.1
2022-08-17T05:45:54.897Z,101203.19
2022-08-17T05:48:16.577Z,101203.72
2022-08-17T05:50:54.810Z,101206.46
2022-08-17T05:53:23.424Z,101210.44
2022-08-17T05:58:23.808Z,101202.5
2022-08-17T06:00:54.999Z,101208.44
2022-08-17T06:03:32.120Z,101207.72
2022-08-17T06:05:57.288Z,101208.86
2022-08-17T06:08:26.746Z,101209.44
2022-08-17T06:10:57.323Z,101214.12
2022-08-17T06:13:26.677Z,101215.72
2022-08-17T06:15:55.385Z,101214.53
2022-08-17T06:18:20.184Z,101210.82
2022-08-17T06:20:52.272Z,101212.89
2022-08-17T06:23:25.446Z,101211.92
2022-08-17T06:25:51.248Z,101217.04999999999
2022-08-17T06:28:25.581Z,101227.62
2022-08-17T06:30:59.657Z,101233.23000000001
2022-08-17T06:33:21.292Z,101243.2
2022-08-17T06:36:02.193Z,101241.31
2022-08-17T06:38:38.410Z,101236.92
2022-08-17T06:41:02.586Z,101223.06999999999
2022-08-17T06:43:31.615Z,101214.4
2022-08-17T06:45:53.182Z,101213.26000000001
2022-08-17T06:48:23.758Z,101218.47
2022-08-17T06:50:52.412Z,101226.26000000001
2022-08-17T06:53:22.379Z,101230.62
2022-08-17T06:58:22.678Z,101225.12000000001
2022-08-17T07:00:49.759Z,101212.66
2022-08-17T07:03:27.969Z,101195.2
2022-08-17T07:05:52.583Z,101188.65
2022-08-17T07:08:26.422Z,101209.53
2022-08-17T07:10:54.143Z,101215.12
2022-08-17T07:13:28.574Z,101212.31
2022-08-17T07:15:53.878Z,101207.06
2022-08-17T07:18:16.740Z,101206.69
2022-08-17T07:20:50.317Z,101195.25
2022-08-17T07:23:25.741Z,101195.29
2022-08-17T07:28:21.934Z,101198.36
2022-08-17T07:30:50.991Z,101205.24
2022-08-17T07:33:19.823Z,101215.73
2022-08-17T07:38:24.800Z,101197.39
2022-08-17T07:41:00.954Z,101202.29000000001
2022-08-17T07:43:23.040Z,101210.74
2022-08-17T07:46:00.934Z,101213.94
2022-08-17T07:48:20.635Z,101222.63
2022-08-17T07:50:49.314Z,101223.99
2022-08-17T07:53:18.407Z,101223.8
2022-08-17T07:55:47.758Z,101233.51
2022-08-17T07:58:19.171Z,101246.15
2022-08-17T08:01:06.533Z,101260.65999999999
2022-08-17T08:03:23.687Z,101267.36
2022-08-17T08:05:51.006Z,101272.22
2022-08-17T08:08:25.295Z,101277.11
2022-08-17T08:10:57.921Z,101287.67
2022-08-17T08:13:23.332Z,101295.95000000001
2022-08-17T08:15:53.814Z,101294.73000000001
2022-08-17T08:18:53.787Z,101289.68
2022-08-17T08:20:51.698Z,101292.97
2022-08-17T08:23:28.575Z,101299.31
2022-08-17T08:26:02.337Z,101303.85
2022-08-17T08:28:24.637Z,101317.6
2022-08-17T08:30:53.348Z,101327.66
2022-08-17T08:33:31.178Z,101333.4
2022-08-17T08:35:52.610Z,101321.63
2022-08-17T08:38:28.193Z,101301.29
2022-08-17T08:41:00.424Z,101294.31
2022-08-17T08:43:23.520Z,101293.25
2022-08-17T08:45:55.582Z,101292.97
2022-08-17T08:48:53.465Z,101288.76000000001
2022-08-17T08:50:56.822Z,101286.47
2022-08-17T08:53:26.797Z,101284.92
2022-08-17T08:55:53.884Z,101279.8
2022-08-17T08:58:31.428Z,101270.31
2022-08-17T09:00:52.318Z,101261.28
2022-08-17T09:03:42.741Z,101264.79000000001
2022-08-17T09:06:02.619Z,101271.15
2022-08-17T09:08:27.144Z,101270.83
2022-08-17T09:13:23.028Z,101292.90999999999
2022-08-17T09:15:54.968Z,101303.86
2022-08-17T09:19:02.934Z,101306.64
2022-08-17T09:25:54.825Z,101276.59
2022-08-17T09:28:18.454Z,101263.19
2022-08-17T09:30:50.787Z,101256.02
2022-08-17T09:33:22.139Z,101253.77
2022-08-17T09:35:50.743Z,101250.95
2022-08-17T09:38:29.217Z,101253.45999999999
2022-08-17T09:40:53.515Z,101263.42
2022-08-17T09:43:24.931Z,101275.11
2022-08-17T09:45:51.321Z,101296.15
2022-08-17T09:48:20.603Z,101301.36
2022-08-17T09:53:16.974Z,101290.7
2022-08-17T09:55:59.643Z,101288.86
2022-08-17T09:58:24.088Z,101289.43000000001
2022-08-17T10:00:55.354Z,101302.89
2022-08-17T10:03:29.210Z,101302.29000000001
2022-08-17T10:05:56.351Z,101298.94
2022-08-17T10:08:26.767Z,101281.54
2022-08-17T10:10:56.576Z,101264.12
2022-08-17T10:13:26.965Z,101259.73
2022-08-17T10:15:56.207Z,101257.28
2022-08-17T10:18:30.381Z,101264.38
2022-08-17T10:21:04.984Z,101277.43000000001
2022-08-17T10:23:33.206Z,101294.65
2022-08-17T10:26:01.716Z,101310.49
2022-08-17T10:28:25.895Z,101318.84999999999
2022-08-17T10:30:58.042Z,101321.06
2022-08-17T10:33:22.594Z,101314.58
2022-08-17T10:35:52.739Z,101297.56
2022-08-17T10:38:30.170Z,101280.47
2022-08-17T10:40:54.842Z,101275.01999999999
2022-08-17T10:43:33.071Z,101265.92000000001
2022-08-17T10:46:27.770Z,101251.49
2022-08-17T10:48:27.002Z,101246.26
2022-08-17T10:50:57.900Z,101240.51
2022-08-17T10:53:37.717Z,101232.34
2022-08-17T10:56:06.499Z,101223.94
2022-08-17T10:58:20.863Z,101228.95999999999
2022-08-17T11:00:57.550Z,101227.59
2022-08-17T11:03:21.989Z,101216.8
2022-08-17T11:08:35.274Z,101211.95
2022-08-17T11:11:00.270Z,101214.36
2022-08-17T11:13:29.203Z,101209.63
2022-08-17T11:15:59.962Z,101201.78
2022-08-17T11:18:34.714Z,101201.35
2022-08-17T11:21:05.087Z,101201.95
2022-08-17T11:23:32.271Z,101205.14
2022-08-17T11:25:52.200Z,101204.02
2022-08-17T11:28:19.409Z,101205.40999999999
2022-08-17T11:30:49.963Z,101201.95
2022-08-17T11:33:38.221Z,101202.58
2022-08-17T11:35:53.899Z,101206.76
2022-08-17T11:38:28.481Z,101211.46
2022-08-17T11:41:03.087Z,101207.09000000001
2022-08-17T11:43:42.289Z,101200.78
2022-08-17T11:46:01.339Z,101202.42
2022-08-17T11:48:36.345Z,101208.98
2022-08-17T11:51:03.549Z,101205.40999999999
2022-08-17T11:56:00.814Z,101206.18
2022-08-17T11:58:36.491Z,101202.18
2022-08-17T12:00:55.623Z,101203.73
2022-08-17T12:03:22.668Z,101208.26
2022-08-17T12:05:47.445Z,101206.39
2022-08-17T12:08:20.677Z,101213.67
2022-08-17T12:10:53.277Z,101216.94
2022-08-17T12:13:17.878Z,101219.06
2022-08-17T12:15:51.748Z,101221.8
2022-08-17T12:18:19.518Z,101229.69
2022-08-17T12:20:59.356Z,101239.18
2022-08-17T12:23:23.364Z,101243.91
2022-08-17T12:25:55.657Z,101245.4
2022-08-17T12:30:48.689Z,101247.6
2022-08-17T12:33:25.203Z,101249.69
2022-08-17T12:35:46.900Z,101250.83
2022-08-17T12:38:32.091Z,101250.87
2022-08-17T12:40:53.359Z,101249.95999999999
2022-08-17T12:45:56.034Z,101245.94
2022-08-17T12:48:23.005Z,101246.42
2022-08-17T12:50:49.210Z,101241.21
2022-08-17T12:53:22.243Z,101233.04000000001
2022-08-17T12:55:48.404Z,101238.69
2022-08-17T12:58:21.581Z,101251.25
2022-08-17T13:00:54.454Z,101252.73
2022-08-17T13:03:20.719Z,101252.22
2022-08-17T13:05:59.726Z,101246.26
2022-08-17T13:08:19.185Z,101241.06
2022-08-17T13:10:54.688Z,101244.87000000001
2022-08-17T13:13:20.311Z,101249.65999999999
2022-08-17T13:15:52.329Z,101253.14
2022-08-17T13:18:32.983Z,101249.55
2022-08-17T13:20:52.468Z,101248.77
2022-08-17T13:23:19.560Z,101246.04000000001
2022-08-17T13:25:52.568Z,101246.33
2022-08-17T13:28:32.426Z,101238.97
2022-08-17T13:30:46.831Z,101239.12
2022-08-17T13:33:26.058Z,101239.45999999999
2022-08-17T13:35:50.190Z,101237.7
2022-08-17T13:38:38.562Z,101239.37
2022-08-17T13:40:50.889Z,101236.63
2022-08-17T13:43:36.619Z,101237.98000000001
2022-08-17T13:45:50.603Z,101235.41
2022-08-17T13:48:22.949Z,101237.48000000001
2022-08-17T13:50:57.776Z,101233.14
2022-08-17T13:53:19.755Z,101227.17
2022-08-17T13:55:50.463Z,101226.67
2022-08-17T13:58:22.982Z,101219.36
2022-08-17T14:00:47.292Z,101217.64
2022-08-17T14:05:49.078Z,101213.45
2022-08-17T14:08:19.693Z,101214.65
2022-08-17T14:10:56.214Z,101207.54
2022-08-17T14:13:16.687Z,101205.78
2022-08-17T14:15:56.108Z,101208.4
2022-08-17T14:18:18.773Z,101207.59000000001
2022-08-17T14:20:46.944Z,101209.55
2022-08-17T14:23:16.803Z,101208.89
2022-08-17T14:25:46.844Z,101221.8
2022-08-17T14:28:17.241Z,101233.52
2022-08-17T14:30:47.030Z,101261.25
2022-08-17T14:33:23.929Z,101281.41
2022-08-17T14:35:47.157Z,101294.86
2022-08-17T14:38:17.767Z,101300.2
2022-08-17T14:40:47.290Z,101309.22
2022-08-17T14:43:17.646Z,101310.63
2022-08-17T14:45:46.951Z,101310.56999999999
2022-08-17T14:50:47.046Z,101297.13
2022-08-17T14:53:16.800Z,101292.64
2022-08-17T14:55:49.623Z,101284.55
2022-08-17T15:00:49.825Z,101275.59999999999
2022-08-17T15:03:17.452Z,101270.25
2022-08-17T15:08:17.760Z,101268.03
2022-08-17T15:10:50.112Z,101264.51
2022-08-17T15:13:19.988Z,101264.9
2022-08-17T15:15:48.310Z,101261.32
2022-08-17T15:18:17.541Z,101257.4
2022-08-17T15:20:48.465Z,101253.52
2022-08-17T15:23:22.335Z,101248.25
2022-08-17T15:25:49.089Z,101246.01
2022-08-17T15:28:16.896Z,101243.72
2022-08-17T15:30:46.770Z,101241.11
2022-08-17T15:33:20.248Z,101238.17
2022-08-17T15:35:49.459Z,101234.79999999999
2022-08-17T15:38:17.467Z,101235.5
2022-08-17T15:40:49.434Z,101233.92
2022-08-17T15:43:23.463Z,101230.88
2022-08-17T15:45:56.808Z,101235.46
2022-08-17T15:48:17.513Z,101234.78
2022-08-17T15:50:46.800Z,101233.46
2022-08-17T15:53:16.765Z,101238.69
2022-08-17T15:55:46.732Z,101235.40000000001
2022-08-17T15:58:17.052Z,101232.29
2022-08-17T16:00:52.960Z,101225.94
2022-08-17T16:04:01.108Z,101224.95
2022-08-17T16:05:46.906Z,101226.22
2022-08-17T16:08:21.161Z,101226.61
2022-08-17T16:10:48.230Z,101225.93000000001
2022-08-17T16:13:18.204Z,101228.06
2022-08-17T16:15:56.696Z,101224.13
2022-08-17T16:18:17.197Z,101222.16
2022-08-17T16:20:46.970Z,101221.6
2022-08-17T16:23:20.225Z,101229.11
2022-08-17T16:25:53.605Z,101229.47
2022-08-17T16:28:16.887Z,101218.08
2022-08-17T16:33:17.652Z,101215.56
2022-08-17T16:35:46.947Z,101216.03
2022-08-17T16:38:17.776Z,101213.45
2022-08-17T16:40:46.883Z,101219.0
2022-08-17T16:43:16.959Z,101221.88
2022-08-17T16:45:51.419Z,101220.95000000001
2022-08-17T16:51:03.216Z,101218.33
2022-08-17T16:53:18.023Z,101212.15999999999
2022-08-17T16:55:48.727Z,101212.58
2022-08-17T16:58:17.110Z,101218.62999999999
2022-08-17T17:03:20.805Z,101223.25
2022-08-17T17:05:58.198Z,101226.14
2022-08-17T17:08:24.676Z,101226.45
2022-08-17T17:10:50.275Z,101219.64
2022-08-17T17:13:24.285Z,101213.84000000001
2022-08-17T17:15:56.615Z,101207.48
2022-08-17T17:18:19.393Z,101203.45
2022-08-17T17:20:54.489Z,101199.87
2022-08-17T17:23:36.634Z,101202.9
2022-08-17T17:25:55.010Z,101196.2
2022-08-17T17:28:25.980Z,101197.63
2022-08-17T17:30:54.446Z,101194.2
2022-08-17T17:33:21.482Z,101190.45
2022-08-17T17:35:49.336Z,101184.88
2022-08-17T17:38:22.060Z,101189.70000000001
2022-08-17T17:40:50.166Z,101183.84
2022-08-17T17:43:35.218Z,101186.64
2022-08-17T17:45:52.708Z,101184.36
2022-08-17T17:48:17.076Z,101180.74
2022-08-17T17:50:53.906Z,101185.69
2022-08-17T17:53:35.353Z,101187.47
2022-08-17T17:55:58.780Z,101183.81000000001
2022-08-17T17:58:26.858Z,101185.13
2022-08-17T18:01:03.408Z,101180.78
2022-08-17T18:03:31.522Z,101183.58
2022-08-17T18:05:52.684Z,101184.56
2022-08-17T18:08:34.300Z,101187.19
2022-08-17T18:10:54.745Z,101189.70000000001
2022-08-17T18:13:26.734Z,101191.33
2022-08-17T18:15:50.889Z,101192.43000000001
2022-08-17T18:18:30.053Z,101202.12
2022-08-17T18:20:53.779Z,101203.89
2022-08-17T18:23:17.402Z,101207.53
2022-08-17T18:25:50.074Z,101204.22
2022-08-17T18:31:03.424Z,101204.22
2022-08-17T18:33:22.964Z,101210.14
2022-08-17T18:35:51.319Z,101205.26999999999
2022-08-17T18:38:21.242Z,101208.45000000001
2022-08-17T18:41:01.492Z,101212.83
2022-08-17T18:43:24.787Z,101219.26
2022-08-17T18:45:49.148Z,101223.29999999999
2022-08-17T18:48:24.289Z,101227.44
2022-08-17T18:50:47.313Z,101226.37
2022-08-17T18:53:33.222Z,101229.86
2022-08-17T18:55:47.197Z,101231.3
2022-08-17T18:58:19.885Z,101233.37
2022-08-17T19:00:48.800Z,101251.07
2022-08-17T19:03:23.622Z,101257.17
2022-08-17T19:05:50.744Z,101268.94
2022-08-17T19:08:21.828Z,101271.45000000001
2022-08-17T19:10:49.089Z,101273.36
2022-08-17T19:13:24.158Z,101278.64
2022-08-17T19:16:07.779Z,101284.81
2022-08-17T19:18:23.288Z,101283.8
2022-08-17T19:20:55.311Z,101285.25
2022-08-17T19:23:22.829Z,101286.41
2022-08-17T19:25:52.554Z,101284.95
2022-08-17T19:28:22.716Z,101282.05
2022-08-17T19:30:46.948Z,101287.09
2022-08-17T19:33:18.350Z,101284.05
2022-08-17T19:35:56.353Z,101282.34
2022-08-17T19:38:35.488Z,101285.69
2022-08-17T19:40:58.909Z,101282.98
2022-08-17T19:43:26.440Z,101288.67
2022-08-17T19:46:00.338Z,101287.67
2022-08-17T19:48:30.517Z,101283.56
2022-08-17T19:50:55.266Z,101283.6
2022-08-17T19:53:47.530Z,101280.12999999999
2022-08-17T19:55:55.285Z,101281.2
2022-08-17T19:58:31.344Z,101280.92
2022-08-17T20:00:50.688Z,101276.97
2022-08-17T20:03:24.658Z,101279.71
2022-08-17T20:06:11.432Z,101278.5
2022-08-17T20:10:55.194Z,101277.39
2022-08-17T20:15:46.902Z,101295.31
2022-08-17T20:18:22.762Z,101296.7
2022-08-17T20:20:56.167Z,101297.28
2022-08-17T20:23:29.241Z,101297.39
2022-08-17T20:25:56.360Z,101302.29000000001
2022-08-17T20:28:23.119Z,101302.06
2022-08-17T20:30:47.079Z,101306.67
2022-08-17T20:33:23.758Z,101303.3
2022-08-17T20:36:03.133Z,101300.37999999999
2022-08-17T20:38:36.830Z,101300.66
2022-08-17T20:41:08.341Z,101295.78
2022-08-17T20:43:38.198Z,101289.28
2022-08-17T20:46:01.762Z,101292.40999999999
2022-08-17T20:48:36.747Z,101290.08
2022-08-17T20:50:55.102Z,101293.02
2022-08-17T20:53:36.705Z,101290.37
2022-08-17T20:55:52.942Z,101291.38
2022-08-17T20:58:35.982Z,101294.64
2022-08-17T21:03:50.116Z,101295.64
2022-08-17T21:05:59.977Z,101299.13
2022-08-17T21:08:24.033Z,101302.12
2022-08-17T21:10:47.165Z,101300.84000000001
2022-08-17T21:15:54.819Z,101304.57
2022-08-17T21:18:27.311Z,101305.33
2022-08-17T21:21:02.509Z,101302.95
2022-08-17T21:23:32.626Z,101297.55
2022-08-17T21:26:05.701Z,101295.17
2022-08-17T21:30:53.726Z,101290.78
2022-08-17T21:33:22.145Z,101288.69
2022-08-17T21:35:49.960Z,101291.8
2022-08-17T21:38:20.337Z,101292.3
2022-08-17T21:40:50.325Z,101294.97
2022-08-17T21:45:56.664Z,101281.48
2022-08-17T21:48:19.972Z,101282.9
2022-08-17T21:50:57.060Z,101283.29
2022-08-17T21:53:28.075Z,101290.38
2022-08-17T21:55:49.185Z,101291.03
2022-08-17T21:58:29.063Z,101294.34
2022-08-17T22:01:06.780Z,101289.4
2022-08-17T22:03:23.059Z,101289.47
2022-08-17T22:05:49.320Z,101290.73
2022-08-17T22:08:19.704Z,101288.09
2022-08-17T22:10:50.040Z,101289.64
2022-08-17T22:13:20.756Z,101294.64
2022-08-17T22:15:58.720Z,101299.98000000001
2022-08-17T22:18:20.882Z,101303.28
2022-08-17T22:20:49.665Z,101306.56
2022-08-17T22:23:33.872Z,101307.61
2022-08-17T22:25:59.033Z,101311.61
2022-08-17T22:28:35.720Z,101312.44
2022-08-17T22:30:58.649Z,101317.92
2022-08-17T22:33:28.251Z,101321.69
2022-08-17T22:35:47.038Z,101327.23
2022-08-17T22:40:49.370Z,101329.1
2022-08-17T22:45:52.453Z,101326.56
2022-08-17T22:48:21.307Z,101328.61
2022-08-17T22:50:48.329Z,101329.04999999999
2022-08-17T22:53:31.454Z,101339.18
2022-08-17T22:55:58.840Z,101340.06000000001
2022-08-17T22:58:30.806Z,101345.37
2022-08-17T23:00:48.169Z,101342.61
2022-08-17T23:03:21.877Z,101343.33
2022-08-17T23:05:58.263Z,101337.07
2022-08-17T23:08:20.156Z,101336.8
2022-08-17T23:11:00.890Z,101335.85
2022-08-17T23:15:50.010Z,101333.7
2022-08-17T23:18:17.149Z,101335.18000000001
2022-08-17T23:25:47.041Z,101339.06
2022-08-17T23:28:17.088Z,101341.12
2022-08-17T23:35:47.330Z,101324.94
2022-08-17T23:38:16.991Z,101325.61
2022-08-17T23:40:47.045Z,101326.15
2022-08-17T23:45:47.042Z,101328.83
2022-08-17T23:48:28.533Z,101326.23
2022-08-17T23:50:47.117Z,101326.98000000001
2022-08-17T23:55:47.301Z,101312.39
2022-08-17T23:58:17.319Z,101307.17
